LGRP/RHO METAR and TAF weather

Enter ICAO airport designator
Station Type Date Time Source
LGRP METAR 2020/12/06 01:20 UTC NOAA

LGRP 060120Z 20005KT 9999 FEW020 15/12 Q1016 NOSIG


Station Type Date Time Source
LGRP Decoded METAR 2020/12/06 01:20 UTC NOAA

Rhodes Airport , Greece (LGRP) 36-24N 028-05E 11M
Dec 05, 2020 - 08:20 PM EST / 2020.12.06 0120 UTC
Wind: from the SSW (200 degrees) at 6 MPH (5 KT):0
Visibility: greater than 7 mile(s):0
Sky conditions: mostly clear
Temperature: 59 F (15 C)
Dew Point: 53 F (12 C)
Relative Humidity: 82%
Pressure (altimeter): 30.00 in. Hg (1016 hPa)
ob: LGRP 060120Z 20005KT 9999 FEW020 15/12 Q1016 NOSIG
cycle: 1

Station Type Date Time Source
LGRP TAF 2020/12/05 18:16 UTC NOAA

TAF LGRP 051700Z 0518/0618 15010KT 9999 SCT018

Example: see airport list